Time;durP1;ratioP1;P1;durP2;ratioP2;P2;SDS_P1;SDS_P2;PMS_P1;PMS_P2;Temp;Humidity;BMP_temperature;BMP_pressure;BME280_temperature;BME280_humidity;BME280_pressure;Samples;Min_cycle;Max_cycle;Signal;HPM_P1;HPM_P2
2022/03/19 00:02:06;;;;;;;25.13;10.90;;;;;;;1.18;37.71;95767.78;4964116;28;20025;-75
2022/03/19 00:04:32;;;;;;;22.83;11.38;;;;;;;0.94;38.10;95745.66;4963259;28;20046;-75
2022/03/19 00:07:03;;;;;;;23.35;12.10;;;;;;;1.00;38.23;95749.28;4964600;28;20370;-74
2022/03/19 00:09:28;;;;;;;29.15;11.90;;;;;;;1.03;38.32;95770.66;5000124;28;20054;-75
2022/03/19 00:11:54;;;;;;;20.63;10.63;;;;;;;1.02;38.29;95763.00;4964862;28;20449;-77
2022/03/19 00:14:19;;;;;;;19.67;9.93;;;;;;;0.75;38.51;95731.59;4967742;28;20026;-74
2022/03/19 00:16:46;;;;;;;17.58;10.80;;;;;;;1.00;38.46;95765.00;4970367;28;20045;-75
2022/03/19 00:19:11;;;;;;;20.52;10.57;;;;;;;0.96;38.25;95762.00;4968987;28;20297;-74
2022/03/19 00:21:37;;;;;;;23.23;11.13;;;;;;;0.99;38.35;95763.38;4961755;28;20034;-75
2022/03/19 00:24:04;;;;;;;19.55;9.98;;;;;;;0.75;37.96;95739.47;4966448;28;20054;-75
2022/03/19 00:26:30;;;;;;;19.90;10.40;;;;;;;0.67;38.03;95742.31;4964550;28;20042;-75
2022/03/19 00:28:56;;;;;;;20.15;9.00;;;;;;;0.71;38.07;95766.28;4969061;28;20042;-75
2022/03/19 00:31:21;;;;;;;17.08;9.65;;;;;;;0.79;37.92;95745.09;4966349;28;20409;-74
2022/03/19 00:33:47;;;;;;;17.08;10.18;;;;;;;0.46;37.86;95707.69;4968087;28;20065;-76
2022/03/19 00:36:12;;;;;;;24.40;9.88;;;;;;;0.63;38.09;95754.22;4960601;28;20518;-73
2022/03/19 00:38:38;;;;;;;22.23;11.07;;;;;;;0.55;38.25;95730.84;4964791;28;20031;-74
2022/03/19 00:41:03;;;;;;;27.27;12.40;;;;;;;0.68;38.30;95757.03;4963474;28;20348;-76
2022/03/19 00:43:34;;;;;;;25.25;11.73;;;;;;;0.73;38.31;95756.41;4962680;28;20057;-75
2022/03/19 00:45:59;;;;;;;21.15;11.07;;;;;;;0.71;38.43;95755.81;4957037;28;20121;-75
2022/03/19 00:48:24;;;;;;;20.10;10.85;;;;;;;0.71;38.49;95751.38;4976558;28;20137;-75
2022/03/19 00:50:50;;;;;;;17.35;9.60;;;;;;;0.74;38.40;95758.03;4990498;28;20062;-75
2022/03/19 00:53:15;;;;;;;16.23;8.38;;;;;;;0.70;38.27;95754.19;4957071;28;20042;-75
2022/03/19 00:55:41;;;;;;;15.77;8.88;;;;;;;0.52;38.51;95741.72;4964689;28;20383;-74
2022/03/19 00:58:06;;;;;;;18.33;8.95;;;;;;;0.45;38.18;95708.72;4970852;28;20049;-75
2022/03/19 01:00:31;;;;;;;14.60;8.70;;;;;;;0.76;38.08;95759.41;4963269;28;20145;-75
2022/03/19 01:02:57;;;;;;;13.57;8.70;;;;;;;0.60;38.10;95744.13;4967194;28;20043;-75
2022/03/19 01:05:23;;;;;;;18.88;8.77;;;;;;;0.47;38.17;95741.53;4967442;28;20653;-75
2022/03/19 01:07:55;;;;;;;16.85;9.02;;;;;;;0.49;38.04;95736.09;4976666;28;20189;-75
2022/03/19 01:10:26;;;;;;;16.30;8.98;;;;;;;0.45;38.21;95735.69;4982584;28;20051;-75
2022/03/19 01:12:57;;;;;;;16.23;9.45;;;;;;;0.63;38.31;95758.63;4966076;28;20540;-75
2022/03/19 01:15:24;;;;;;;15.45;9.23;;;;;;;0.52;38.51;95756.63;4955708;28;20047;-75
2022/03/19 01:17:50;;;;;;;24.45;10.95;;;;;;;0.61;38.44;95756.22;4966471;28;20588;-75
2022/03/19 01:20:17;;;;;;;19.35;9.85;;;;;;;0.56;38.35;95748.16;4964171;28;20084;-74
2022/03/19 01:22:44;;;;;;;16.30;9.23;;;;;;;0.42;38.29;95730.88;4958889;28;20034;-75
2022/03/19 01:25:11;;;;;;;15.23;7.93;;;;;;;0.58;38.55;95755.81;4961686;28;20117;-75
2022/03/19 01:27:38;;;;;;;21.48;9.68;;;;;;;0.47;38.39;95746.78;4965455;28;20054;-76
2022/03/19 01:30:06;;;;;;;21.02;9.88;;;;;;;0.39;38.24;95731.28;4972580;28;20525;-73
2022/03/19 01:32:32;;;;;;;22.23;10.90;;;;;;;0.36;38.27;95735.09;4964174;28;20622;-75
2022/03/19 01:34:59;;;;;;;22.75;11.45;;;;;;;0.54;38.08;95750.19;4966491;28;20034;-75
2022/03/19 01:37:24;;;;;;;19.23;10.73;;;;;;;0.25;38.42;95708.75;4965141;28;20105;-75
2022/03/19 01:39:52;;;;;;;19.30;10.60;;;;;;;0.19;38.14;95722.63;4965493;28;20537;-75
2022/03/19 01:42:26;;;;;;;21.88;11.20;;;;;;;0.18;38.18;95718.41;4965123;28;20520;-75
2022/03/19 01:44:53;;;;;;;20.67;11.00;;;;;;;0.06;39.08;95731.25;4966652;28;20556;-75
2022/03/19 01:47:18;;;;;;;31.42;11.70;;;;;;;0.06;38.71;95712.16;4962280;28;20026;-76
2022/03/19 01:49:44;;;;;;;28.73;11.20;;;;;;;0.15;38.88;95731.91;4967966;28;20053;-72
2022/03/19 01:52:09;;;;;;;22.48;10.85;;;;;;;0.08;38.76;95718.81;4964602;28;20058;-72
2022/03/19 01:54:37;;;;;;;23.05;10.30;;;;;;;0.19;39.00;95730.47;4954713;28;22168;-75
2022/03/19 01:57:03;;;;;;;24.92;12.18;;;;;;;0.20;39.18;95727.63;4966413;28;20105;-75
2022/03/19 01:59:34;;;;;;;20.30;10.20;;;;;;;-0.05;39.36;95712.75;4958023;28;20062;-75
2022/03/19 02:02:06;;;;;;;20.63;10.20;;;;;;;0.04;39.28;95706.31;4960904;28;20486;-75
2022/03/19 02:04:34;;;;;;;22.73;11.23;;;;;;;0.13;39.07;95707.72;4966417;28;20540;-76
2022/03/19 02:07:00;;;;;;;25.92;11.30;;;;;;;0.08;39.14;95692.63;4962810;28;20046;-74
2022/03/19 02:09:25;;;;;;;26.95;11.27;;;;;;;0.16;39.15;95704.69;4969585;28;20030;-75
2022/03/19 02:11:51;;;;;;;23.33;12.02;;;;;;;0.18;39.15;95707.94;4954187;28;20058;-74
2022/03/19 02:14:18;;;;;;;25.90;10.93;;;;;;;0.28;39.40;95722.22;4962311;28;20030;-75
2022/03/19 02:16:43;;;;;;;25.42;12.18;;;;;;;0.14;39.53;95698.88;4959622;28;20042;-75
2022/03/19 02:19:10;;;;;;;20.80;9.60;;;;;;;0.17;39.58;95722.00;4962728;28;20037;-76
2022/03/19 02:21:43;;;;;;;22.23;11.05;;;;;;;0.19;39.50;95723.44;4968393;28;20495;-74
2022/03/19 02:26:55;;;;;;;24.30;11.93;;;;;;;-0.03;39.35;95695.84;4964290;28;20170;-75
2022/03/19 02:29:21;;;;;;;23.60;10.95;;;;;;;0.16;39.49;95715.97;4966580;28;20188;-75
2022/03/19 02:31:47;;;;;;;17.17;10.00;;;;;;;-0.03;39.52;95681.97;4989913;28;20042;-75
2022/03/19 02:34:13;;;;;;;20.83;10.07;;;;;;;0.05;39.45;95718.41;4955926;28;20086;-74
2022/03/19 02:36:41;;;;;;;19.98;8.90;;;;;;;-0.05;39.37;95687.41;4970256;28;20046;-75
2022/03/19 02:39:17;;;;;;;15.60;9.40;;;;;;;0.02;39.25;95703.91;4960296;28;20699;-76
2022/03/19 02:41:48;;;;;;;20.70;10.27;;;;;;;0.06;39.47;95709.53;4958967;28;20451;-75
2022/03/19 02:44:17;;;;;;;18.05;9.63;;;;;;;-0.26;39.99;95693.63;4967296;28;20056;-73
2022/03/19 02:46:47;;;;;;;14.88;8.32;;;;;;;0.05;40.05;95723.63;4967660;28;20037;-75
2022/03/19 02:49:14;;;;;;;19.55;10.15;;;;;;;0.05;40.20;95723.63;4966217;28;20038;-75
2022/03/19 02:51:41;;;;;;;26.42;10.73;;;;;;;-0.00;40.01;95726.06;4960833;28;20042;-75
2022/03/19 02:54:10;;;;;;;19.38;11.05;;;;;;;-0.09;40.02;95714.94;4969268;28;20061;-74
2022/03/19 02:56:38;;;;;;;15.35;9.20;;;;;;;-0.36;40.01;95680.13;4962303;28;20049;-75
2022/03/19 02:59:12;;;;;;;12.90;6.82;;;;;;;0.01;39.56;95723.22;4961732;28;20449;-74
2022/03/19 03:01:39;;;;;;;16.38;8.25;;;;;;;0.02;39.47;95710.94;4957915;28;20465;-75
2022/03/19 03:04:05;;;;;;;18.05;9.07;;;;;;;0.04;39.46;95716.78;4967568;28;20504;-76
2022/03/19 03:06:35;;;;;;;19.13;10.25;;;;;;;0.13;39.39;95729.47;4962659;28;20109;-74
2022/03/19 03:09:01;;;;;;;14.65;8.23;;;;;;;0.09;39.23;95730.06;4983270;28;20097;-75
2022/03/19 03:11:27;;;;;;;20.25;9.80;;;;;;;-0.14;39.33;95686.78;4959601;28;20031;-74
2022/03/19 03:13:52;;;;;;;17.98;9.27;;;;;;;-0.13;39.04;95704.09;4984092;28;20184;-74
2022/03/19 03:16:27;;;;;;;19.75;9.05;;;;;;;-0.03;39.07;95729.06;4970082;28;20034;-74
2022/03/19 03:18:56;;;;;;;16.67;8.73;;;;;;;-0.30;39.29;95702.88;5002650;28;20133;-75
2022/03/19 03:21:22;;;;;;;16.30;8.70;;;;;;;-0.10;39.07;95735.09;4968650;28;20046;-76
2022/03/19 03:23:47;;;;;;;12.85;7.95;;;;;;;-0.13;39.10;95703.28;4973506;28;20531;-75
2022/03/19 03:26:13;;;;;;;15.68;8.52;;;;;;;-0.15;38.98;95711.34;4965770;28;20306;-75
2022/03/19 03:28:38;;;;;;;15.55;8.30;;;;;;;0.07;38.91;95726.84;4974750;28;20524;-75
2022/03/19 03:31:04;;;;;;;10.20;7.47;;;;;;;-0.02;38.89;95734.09;4964850;28;20101;-76
2022/03/19 03:33:29;;;;;;;14.95;8.35;;;;;;;-0.22;39.37;95721.00;4963812;28;20484;-75
2022/03/19 03:35:55;;;;;;;16.52;8.02;;;;;;;-0.14;39.46;95733.88;4964501;28;22707;-72
2022/03/19 03:38:21;;;;;;;16.35;8.23;;;;;;;-0.10;39.45;95724.63;4970807;28;20033;-73
2022/03/19 03:40:46;;;;;;;15.70;8.95;;;;;;;-0.18;39.40;95719.59;4960571;28;20882;-73
2022/03/19 03:43:12;;;;;;;16.85;8.55;;;;;;;-0.16;39.12;95722.81;4970922;28;20042;-74
2022/03/19 03:45:41;;;;;;;14.50;8.27;;;;;;;-0.14;39.24;95725.25;4961438;28;20066;-75
2022/03/19 03:48:07;;;;;;;16.23;8.15;;;;;;;-0.30;39.51;95710.72;4967242;28;20038;-72
2022/03/19 03:50:32;;;;;;;14.93;8.20;;;;;;;-0.31;39.65;95714.34;4982976;28;20026;-73
2022/03/19 03:52:58;;;;;;;15.55;8.48;;;;;;;-0.25;39.47;95733.66;4958081;28;20510;-71
2022/03/19 03:55:23;;;;;;;18.45;8.55;;;;;;;-0.36;39.85;95711.53;4995919;28;20046;-72
2022/03/19 03:57:48;;;;;;;19.98;8.90;;;;;;;-0.44;39.68;95719.56;4962390;28;20508;-73
2022/03/19 04:00:15;;;;;;;21.13;8.77;;;;;;;-0.42;39.57;95712.31;4974283;28;20031;-74
2022/03/19 04:02:40;;;;;;;13.25;9.02;;;;;;;-0.43;39.51;95710.69;4965715;28;20023;-73
2022/03/19 04:05:08;;;;;;;20.00;9.07;;;;;;;-0.35;39.71;95734.06;4967293;28;20022;-72
2022/03/19 04:07:33;;;;;;;19.42;10.15;;;;;;;-0.43;39.81;95710.69;4968991;28;20039;-75
2022/03/19 04:09:59;;;;;;;16.30;10.00;;;;;;;-0.42;39.80;95712.31;4962259;28;20582;-76
2022/03/19 04:12:24;;;;;;;19.23;9.73;;;;;;;-0.37;39.41;95736.03;4969738;28;20047;-76
2022/03/19 04:14:50;;;;;;;19.40;10.73;;;;;;;-0.52;39.63;95707.47;4967448;28;20042;-75
2022/03/19 04:17:15;;;;;;;17.52;9.00;;;;;;;-0.29;39.56;95742.91;4968498;28;20485;-75
2022/03/19 04:19:42;;;;;;;13.10;8.57;;;;;;;-0.36;39.27;95737.66;4966008;28;20046;-74
2022/03/19 04:22:07;;;;;;;21.75;10.00;;;;;;;-0.85;39.47;95679.63;4962708;28;20030;-73
2022/03/19 04:24:33;;;;;;;19.02;8.95;;;;;;;-0.44;39.71;95744.91;4965368;28;20035;-76
2022/03/19 04:26:58;;;;;;;16.73;9.68;;;;;;;-0.51;39.90;95737.03;4965835;28;20502;-75
2022/03/19 04:29:24;;;;;;;16.73;8.15;;;;;;;-0.57;39.88;95740.41;4974749;28;20448;-75
2022/03/19 04:31:50;;;;;;;14.95;7.60;;;;;;;-0.58;40.25;95717.91;4964590;28;20492;-73
2022/03/19 04:34:15;;;;;;;20.67;9.27;;;;;;;-0.49;40.09;95742.06;4960400;28;20530;-75
2022/03/19 04:36:41;;;;;;;18.08;8.25;;;;;;;-0.68;40.17;95712.25;4965425;28;20093;-74
2022/03/19 04:39:07;;;;;;;16.80;8.30;;;;;;;-0.58;40.17;95729.16;4962856;28;20584;-75
2022/03/19 04:41:34;;;;;;;15.38;8.57;;;;;;;-0.68;40.60;95738.38;4967541;28;20022;-74
2022/03/19 04:44:00;;;;;;;18.52;7.35;;;;;;;-0.63;40.47;95730.78;4961726;28;20501;-74
2022/03/19 04:46:26;;;;;;;16.33;9.68;;;;;;;-0.81;40.44;95696.53;4966047;28;20105;-74
2022/03/19 04:48:52;;;;;;;14.18;7.85;;;;;;;-0.67;40.43;95719.06;4966018;28;20112;-73
2022/03/19 04:51:20;;;;;;;12.65;8.38;;;;;;;-0.86;40.48;95686.66;4963286;28;20042;-75
2022/03/19 04:53:50;;;;;;;18.80;8.43;;;;;;;-0.63;40.55;95712.47;4969685;28;20053;-74
2022/03/19 04:56:23;;;;;;;15.52;9.13;;;;;;;-0.37;40.45;95736.03;4964577;28;20129;-75
2022/03/19 04:58:50;;;;;;;15.63;7.45;;;;;;;-0.32;40.42;95736.25;4969110;28;20042;-74
2022/03/19 05:01:16;;;;;;;13.35;7.80;;;;;;;-0.45;40.60;95704.06;4967225;28;20224;-72
2022/03/19 05:03:41;;;;;;;12.77;7.15;;;;;;;-0.36;40.57;95715.94;4967368;28;20116;-72
2022/03/19 05:06:07;;;;;;;14.23;8.10;;;;;;;-0.22;40.56;95733.25;4961363;28;20621;-73
2022/03/19 05:08:32;;;;;;;16.70;6.72;;;;;;;-0.28;40.71;95739.28;4970840;28;20107;-74
2022/03/19 05:11:19;;;;;;;12.27;7.60;;;;;;;-0.31;40.92;95716.97;4975360;28;20027;-75
2022/03/19 05:13:47;;;;;;;19.70;9.35;;;;;;;-0.30;40.80;95700.28;4970228;28;20083;-74
2022/03/19 05:16:13;;;;;;;20.25;9.45;;;;;;;0.14;40.18;95725.84;4963098;28;20038;-75
2022/03/19 05:18:39;;;;;;;19.95;11.05;;;;;;;0.12;40.40;95724.44;4955423;28;20405;-74
2022/03/19 05:21:04;;;;;;;20.23;11.00;;;;;;;0.16;40.65;95729.06;4968120;28;20417;-73
2022/03/19 05:23:30;;;;;;;24.65;12.30;;;;;;;0.08;40.10;95702.28;4955997;28;20587;-74
2022/03/19 05:25:59;;;;;;;25.98;12.40;;;;;;;0.36;40.01;95742.13;4966418;28;20030;-74
2022/03/19 05:28:26;;;;;;;26.88;12.95;;;;;;;0.40;40.29;95737.31;4963924;28;20271;-73
2022/03/19 05:30:54;;;;;;;25.13;12.65;;;;;;;0.24;39.76;95733.28;4960728;28;20154;-75
2022/03/19 05:34:29;;;;;;;32.40;12.93;;;;;;;0.43;39.40;95735.09;4962335;28;20092;-74
2022/03/19 05:36:06;;;;;;;27.58;13.98;;;;;;;-0.42;40.19;95725.38;4965291;28;20038;-73
2022/03/19 05:38:32;;;;;;;37.33;14.55;;;;;;;-0.32;40.45;95717.94;4965775;28;20030;-72
2022/03/19 05:40:57;;;;;;;31.90;14.57;;;;;;;-0.61;41.28;95734.78;4962264;28;20034;-75
2022/03/19 05:43:22;;;;;;;33.22;16.85;;;;;;;-0.86;41.79;95720.63;4963715;28;20062;-74
2022/03/19 05:45:48;;;;;;;33.88;14.77;;;;;;;-0.39;41.82;95747.72;4954592;28;20527;-75
2022/03/19 05:48:14;;;;;;;38.80;17.80;;;;;;;-1.41;43.11;95737.25;4983310;28;20041;-71
2022/03/19 05:50:39;;;;;;;37.38;16.00;;;;;;;-1.02;43.50;95754.94;4965675;28;20034;-74
2022/03/19 05:53:05;;;;;;;32.63;16.38;;;;;;;-1.34;43.77;95724.22;4960186;28;20022;-73
2022/03/19 05:55:30;;;;;;;34.80;16.60;;;;;;;-1.82;45.10;95756.22;4966300;28;20042;-74
2022/03/19 05:57:55;;;;;;;29.70;15.65;;;;;;;-1.32;45.08;95758.78;4961082;28;20696;-74
2022/03/19 06:00:21;;;;;;;32.85;16.33;;;;;;;-1.62;44.92;95758.16;4969855;28;20062;-74
2022/03/19 06:02:46;;;;;;;28.88;15.88;;;;;;;-1.98;45.74;95756.47;4962221;28;20442;-74
2022/03/19 06:05:12;;;;;;;31.25;15.25;;;;;;;-2.04;46.44;95735.56;4970140;28;20056;-74
2022/03/19 06:07:37;;;;;;;36.35;16.70;;;;;;;-2.06;46.52;95733.16;4963808;28;20055;-74
2022/03/19 06:10:05;;;;;;;29.02;16.48;;;;;;;-2.55;46.87;95735.69;4959279;28;20045;-74
2022/03/19 06:12:30;;;;;;;33.17;16.00;;;;;;;-2.59;48.42;95762.31;4969279;28;20050;-74
2022/03/19 06:14:56;;;;;;;38.40;16.88;;;;;;;-2.59;48.21;95742.28;4961593;28;20788;-73
2022/03/19 06:17:21;;;;;;;34.28;17.45;;;;;;;-2.61;48.98;95759.06;4966132;28;20151;-73
2022/03/19 06:19:50;;;;;;;26.45;15.65;;;;;;;-2.56;49.14;95756.72;4963941;28;20033;-73
2022/03/19 06:22:16;;;;;;;34.20;17.42;;;;;;;-2.58;49.08;95732.66;4967676;28;20600;-75
2022/03/19 06:24:41;;;;;;;40.25;15.45;;;;;;;-2.43;48.89;95759.44;4959390;28;20135;-75
2022/03/19 06:27:07;;;;;;;36.38;16.50;;;;;;;-1.59;47.67;95760.38;4963164;28;20102;-74
2022/03/19 06:29:33;;;;;;;36.10;17.30;;;;;;;-1.21;46.59;95737.34;4997094;28;20129;-74
2022/03/19 06:32:08;;;;;;;36.60;20.90;;;;;;;-0.67;45.45;95742.59;4968644;28;20332;-73
2022/03/19 06:34:33;;;;;;;;;;;;;;;-0.19;43.93;95749.34;4968501;28;20065;-74
2022/03/19 06:39:43;;;;;;;34.47;16.17;;;;;;;-0.45;43.63;95757.16;4966774;28;20096;-74
2022/03/19 06:42:08;;;;;;;32.38;17.73;;;;;;;-0.17;43.30;95744.75;4960776;28;20031;-75
2022/03/19 06:44:34;;;;;;;29.63;16.67;;;;;;;-0.26;42.74;95742.50;4959898;28;20030;-74
2022/03/19 06:47:00;;;;;;;30.70;16.05;;;;;;;-0.70;43.06;95761.28;4974597;28;20034;-74
2022/03/19 06:49:27;;;;;;;26.00;15.25;;;;;;;-1.00;43.13;95737.25;4964932;28;20366;-73
2022/03/19 06:51:52;;;;;;;28.55;14.05;;;;;;;-0.86;43.51;95759.00;4970016;28;20532;-74
2022/03/19 06:54:18;;;;;;;31.88;13.60;;;;;;;-0.11;41.76;95749.19;4961303;28;20046;-76
2022/03/19 06:56:43;;;;;;;29.10;14.13;;;;;;;0.44;40.80;95765.50;4967296;28;20467;-73
2022/03/19 06:59:08;;;;;;;26.33;13.95;;;;;;;-0.44;41.39;95703.06;4967996;28;20034;-74
2022/03/19 07:01:36;;;;;;;28.88;13.32;;;;;;;-0.11;41.30;95736.09;4973761;28;20540;-75
2022/03/19 07:04:01;;;;;;;29.20;12.38;;;;;;;0.46;39.87;95726.03;4968369;28;20050;-71
2022/03/19 07:06:27;;;;;;;24.05;12.77;;;;;;;0.75;38.97;95730.81;4968519;28;20517;-71
2022/03/19 07:08:52;;;;;;;22.42;12.02;;;;;;;0.71;39.00;95714.69;4970866;28;20405;-72
2022/03/19 07:11:18;;;;;;;19.58;12.50;;;;;;;0.90;38.41;95747.09;4969674;28;20655;-75
2022/03/19 07:13:43;;;;;;;26.73;13.45;;;;;;;0.66;38.19;95704.03;4967514;28;20034;-72
2022/03/19 07:16:08;;;;;;;20.90;12.63;;;;;;;0.60;38.18;95670.81;4969463;28;20497;-73
2022/03/19 07:18:34;;;;;;;23.75;12.77;;;;;;;0.90;38.03;95718.28;4967315;28;20082;-74
2022/03/19 07:20:59;;;;;;;27.25;11.45;;;;;;;1.22;37.29;95729.66;4969136;28;20118;-75
2022/03/19 07:23:25;;;;;;;19.15;11.90;;;;;;;0.79;37.87;95722.31;4961040;28;20034;-73
2022/03/19 07:25:50;;;;;;;21.90;13.45;;;;;;;0.94;38.63;95745.66;4972868;28;20022;-74
2022/03/19 07:28:20;;;;;;;24.95;12.15;;;;;;;0.55;39.44;95750.97;4971948;28;20966;-73
2022/03/19 07:30:47;;;;;;;18.05;11.40;;;;;;;0.82;38.15;95722.94;4963135;28;20035;-74
2022/03/19 07:33:13;;;;;;;20.65;11.77;;;;;;;1.21;38.29;95747.22;4970647;28;20521;-74
2022/03/19 07:35:40;;;;;;;21.42;10.50;;;;;;;1.08;37.56;95725.50;4961334;28;20425;-75
2022/03/19 07:38:06;;;;;;;18.95;10.13;;;;;;;0.38;38.93;95742.75;4971446;28;20080;-73
2022/03/19 07:43:17;;;;;;;16.58;9.60;;;;;;;0.78;38.77;95736.47;4961685;28;20088;-74
2022/03/19 07:45:42;;;;;;;18.80;9.32;;;;;;;0.75;37.58;95742.09;4963137;28;20114;-75
2022/03/19 07:48:09;;;;;;;17.70;9.63;;;;;;;0.74;38.35;95719.53;4967363;28;20034;-74
2022/03/19 07:50:35;;;;;;;14.70;8.00;;;;;;;0.66;38.56;95748.56;4961430;28;20026;-75
2022/03/19 07:53:00;;;;;;;16.17;9.80;;;;;;;1.33;37.21;95742.09;4967238;28;20026;-75
2022/03/19 07:55:26;;;;;;;15.85;8.07;;;;;;;1.19;35.81;95716.97;4966375;28;20042;-74
2022/03/19 07:57:52;;;;;;;11.32;6.95;;;;;;;0.66;36.54;95745.13;4960521;28;20034;-75
2022/03/19 08:00:17;;;;;;;17.38;7.60;;;;;;;0.13;36.75;95700.69;4972961;28;20043;-74
2022/03/19 08:02:43;;;;;;;15.13;7.65;;;;;;;0.46;36.03;95747.78;4963274;28;20570;-73
2022/03/19 08:05:10;;;;;;;18.98;8.68;;;;;;;-0.02;35.10;95712.34;4967445;28;20026;-75
2022/03/19 08:07:37;;;;;;;13.13;8.70;;;;;;;0.50;35.95;95748.97;4969065;28;20138;-74
2022/03/19 08:10:07;;;;;;;15.13;7.88;;;;;;;-0.06;35.65;95748.56;4968945;28;20146;-74
2022/03/19 08:12:33;;;;;;;9.23;6.60;;;;;;;-0.55;35.96;95718.31;4976590;28;20707;-74
2022/03/19 08:15:01;;;;;;;20.85;7.82;;;;;;;-0.31;35.93;95750.94;4968630;28;20148;-75
2022/03/19 08:17:27;;;;;;;13.48;8.65;;;;;;;-0.50;35.82;95751.72;4966924;28;20034;-75
2022/03/19 08:19:52;;;;;;;13.80;7.28;;;;;;;-0.28;36.16;95719.16;4968793;28;20449;-74
2022/03/19 08:22:18;;;;;;;16.58;9.38;;;;;;;-0.20;35.69;95741.72;4964306;28;20109;-74
2022/03/19 08:24:45;;;;;;;18.73;8.57;;;;;;;0.18;36.26;95740.13;4967589;28;20038;-74
2022/03/19 08:27:10;;;;;;;16.95;6.68;;;;;;;-0.55;36.29;95712.28;4966610;28;20034;-73
2022/03/19 08:29:36;;;;;;;19.92;8.35;;;;;;;-0.50;36.26;95702.03;4970938;28;20459;-71
2022/03/19 08:32:02;;;;;;;12.85;8.55;;;;;;;-0.39;36.38;95740.69;4966745;28;20789;-73
2022/03/19 08:34:27;;;;;;;13.32;8.10;;;;;;;-0.25;36.55;95741.50;4967805;28;20551;-74
2022/03/19 08:36:53;;;;;;;15.50;8.13;;;;;;;-0.26;36.04;95735.47;4965623;28;20764;-74
2022/03/19 08:42:02;;;;;;;13.75;8.13;;;;;;;-0.34;36.08;95733.06;4963916;28;20866;-75
2022/03/19 08:44:28;;;;;;;13.95;8.23;;;;;;;-0.49;36.43;95713.31;4996559;28;20116;-74
2022/03/19 08:46:53;;;;;;;13.43;8.35;;;;;;;-0.16;35.75;95740.31;4965664;28;20493;-74
2022/03/19 08:49:19;;;;;;;13.40;6.60;;;;;;;-0.54;36.23;95713.91;4962445;28;20966;-74
2022/03/19 08:51:45;;;;;;;14.38;7.97;;;;;;;-0.25;36.07;95708.31;4968096;28;20081;-73
2022/03/19 08:54:16;;;;;;;15.63;7.55;;;;;;;-0.32;36.27;95733.66;4969317;28;20532;-72
2022/03/19 08:56:43;;;;;;;14.43;7.68;;;;;;;-0.56;36.33;95710.66;4981989;28;20069;-73
2022/03/19 08:59:10;;;;;;;13.05;7.05;;;;;;;-0.83;36.13;95725.47;4965992;28;20027;-71
2022/03/19 09:01:36;;;;;;;12.60;8.40;;;;;;;-0.74;36.31;95739.16;4963029;28;20099;-72
2022/03/19 09:04:03;;;;;;;12.63;7.53;;;;;;;-0.60;36.29;95736.41;4966963;28;20031;-74
2022/03/19 09:06:28;;;;;;;13.60;6.93;;;;;;;-0.86;36.18;95696.31;4959036;28;20049;-71
2022/03/19 09:08:53;;;;;;;15.27;7.30;;;;;;;-0.93;36.05;95705.94;4967643;28;20066;-71
2022/03/19 09:11:20;;;;;;;15.80;7.78;;;;;;;-1.26;36.35;95703.97;4967399;28;20034;-73
2022/03/19 09:13:48;;;;;;;12.38;6.60;;;;;;;-1.03;36.40;95725.41;4963185;28;20518;-74
2022/03/19 09:16:13;;;;;;;16.50;7.63;;;;;;;-1.06;36.72;95704.06;4955420;28;20638;-73
2022/03/19 09:18:39;;;;;;;19.73;8.43;;;;;;;-1.63;36.38;95598.19;4961656;28;20034;-74
2022/03/19 09:21:05;;;;;;;14.15;6.68;;;;;;;-0.25;36.42;95717.97;4961718;28;20143;-74
2022/03/19 09:23:30;;;;;;;14.00;8.48;;;;;;;-0.54;36.43;95729.59;4964025;28;20636;-71
2022/03/19 09:25:58;;;;;;;15.57;8.20;;;;;;;-0.73;36.66;95730.34;4958259;28;20552;-74
2022/03/19 09:28:24;;;;;;;12.48;7.78;;;;;;;-0.18;40.12;95719.59;4961650;28;20046;-74
2022/03/19 09:30:50;;;;;;;17.73;7.35;;;;;;;0.15;37.39;95716.19;4966614;28;20031;-72
2022/03/19 09:33:15;;;;;;;12.75;7.32;;;;;;;-0.02;35.88;95707.13;4963809;28;20189;-71
2022/03/19 09:35:41;;;;;;;15.68;9.25;;;;;;;-0.10;36.12;95721.22;4960917;28;20042;-74
2022/03/19 09:38:06;;;;;;;10.27;6.55;;;;;;;-0.07;35.22;95705.91;4961121;28;20374;-75
2022/03/19 09:40:32;;;;;;;13.60;6.38;;;;;;;-0.25;34.67;95718.78;4960923;28;20042;-74
2022/03/19 09:42:59;;;;;;;11.20;7.43;;;;;;;-0.37;35.87;95714.31;4963464;28;20026;-75
2022/03/19 09:45:26;;;;;;;14.15;7.28;;;;;;;-0.41;35.53;95711.31;4962776;28;20433;-75
2022/03/19 09:47:53;;;;;;;16.27;7.65;;;;;;;-0.19;35.30;95691.81;4959850;28;20035;-75
2022/03/19 09:50:19;;;;;;;12.38;7.35;;;;;;;0.20;35.81;95703.31;4962990;28;20077;-75
2022/03/19 09:52:49;;;;;;;15.98;7.78;;;;;;;-0.05;36.35;95703.09;4971968;28;20461;-75
2022/03/19 09:55:16;;;;;;;16.83;7.22;;;;;;;-0.27;36.98;95707.72;4957711;28;20161;-74
2022/03/19 09:57:42;;;;;;;14.68;8.48;;;;;;;-0.47;37.42;95704.25;4959614;28;20046;-73
2022/03/19 10:00:10;;;;;;;10.93;6.75;;;;;;;-0.40;37.58;95710.31;4966117;28;20205;-75
2022/03/19 10:02:55;;;;;;;10.88;6.93;;;;;;;-0.45;37.36;95717.13;4952448;28;20382;-75
2022/03/19 10:10:50;;;;;;;9.95;6.43;;;;;;;-0.65;37.81;95685.72;4957284;28;20521;-75
2022/03/19 10:13:16;;;;;;;11.50;6.50;;;;;;;-0.30;37.67;95700.28;4961537;28;20043;-75
2022/03/19 10:15:42;;;;;;;14.55;8.45;;;;;;;-0.03;37.56;95700.28;4995360;28;20043;-74
2022/03/19 10:18:09;;;;;;;14.52;8.43;;;;;;;-0.47;37.28;95693.78;4995002;28;20042;-74
2022/03/19 10:20:36;;;;;;;14.40;7.63;;;;;;;-0.55;37.35;95717.50;4963343;28;20073;-73
2022/03/19 10:23:02;;;;;;;11.38;7.22;;;;;;;-0.64;38.00;95713.47;4965944;28;20053;-74
2022/03/19 10:25:28;;;;;;;23.55;9.13;;;;;;;-0.77;37.95;95710.78;4963193;28;20469;-74
2022/03/19 10:28:00;;;;;;;16.95;8.73;;;;;;;-1.04;38.11;95707.28;4979655;28;20501;-74
2022/03/19 10:30:28;;;;;;;13.07;7.75;;;;;;;-0.90;38.84;95713.38;4963907;28;20435;-74
2022/03/19 10:32:56;;;;;;;14.30;7.75;;;;;;;-0.67;38.92;95708.63;4966066;28;20408;-74
2022/03/19 10:35:32;;;;;;;16.40;7.78;;;;;;;-0.43;37.46;95686.38;4961052;28;20042;-75
2022/03/19 10:38:15;;;;;;;13.32;7.68;;;;;;;-0.36;37.14;95679.34;4943603;28;20063;-74
2022/03/19 10:40:43;;;;;;;12.18;7.60;;;;;;;-0.38;37.46;95697.81;4959794;28;20483;-72
2022/03/19 10:43:11;;;;;;;10.38;6.80;;;;;;;-0.37;36.96;95698.63;4968079;28;20536;-75
2022/03/19 10:45:45;;;;;;;15.98;7.90;;;;;;;-0.66;37.90;95678.88;4961711;28;20042;-74
2022/03/19 10:48:12;;;;;;;13.90;6.82;;;;;;;-0.47;38.09;95704.25;4964076;28;20045;-73
2022/03/19 10:50:41;;;;;;;14.80;8.32;;;;;;;-0.65;37.24;95670.03;4966616;28;20030;-75
2022/03/19 10:53:07;;;;;;;10.82;6.22;;;;;;;-0.53;37.14;95684.94;4962515;28;20084;-75
2022/03/19 10:55:32;;;;;;;13.23;7.18;;;;;;;-0.37;37.19;95683.75;4964922;28;20452;-74
2022/03/19 10:57:58;;;;;;;11.13;6.13;;;;;;;-0.20;36.66;95682.38;4963669;28;20034;-75
2022/03/19 11:00:28;;;;;;;15.35;6.47;;;;;;;0.01;37.06;95680.56;4965517;28;20096;-74
2022/03/19 11:02:57;;;;;;;9.05;6.70;;;;;;;-0.11;36.38;95673.31;4961366;28;20101;-73
2022/03/19 11:05:24;;;;;;;13.20;6.68;;;;;;;-0.05;36.53;95684.00;4965397;28;20034;-75
2022/03/19 11:07:51;;;;;;;15.98;8.20;;;;;;;-0.28;36.38;95651.19;4964992;28;20053;-73
2022/03/19 11:10:19;;;;;;;9.23;6.50;;;;;;;-0.62;36.92;95665.22;4965684;28;20035;-75
2022/03/19 11:12:50;;;;;;;13.00;6.35;;;;;;;-0.35;36.69;95687.00;4959888;28;20042;-74
2022/03/19 11:15:17;;;;;;;10.38;5.90;;;;;;;-0.65;36.72;95668.25;4961311;28;20035;-74
2022/03/19 11:17:44;;;;;;;19.67;7.38;;;;;;;-0.71;37.00;95676.06;4970944;28;20196;-75
2022/03/19 11:20:12;;;;;;;14.70;7.57;;;;;;;-0.89;37.85;95660.13;4961117;28;20093;-74
2022/03/19 11:22:41;;;;;;;12.23;6.95;;;;;;;-0.34;38.14;95662.47;4964045;28;20042;-74
2022/03/19 11:25:19;;;;;;;10.23;6.47;;;;;;;-0.39;38.17;95664.88;4979197;28;20505;-71
2022/03/19 11:27:49;;;;;;;10.82;6.88;;;;;;;-0.49;37.60;95677.53;4981170;28;20053;-71
2022/03/19 11:30:20;;;;;;;11.05;5.95;;;;;;;-0.88;37.29;95648.69;4963176;28;20038;-72
2022/03/19 11:33:14;;;;;;;14.82;7.35;;;;;;;-1.12;37.40;95593.34;4971308;28;20034;-72
2022/03/19 11:35:45;;;;;;;14.50;6.22;;;;;;;-0.84;37.58;95644.66;4964928;28;20039;-72
2022/03/19 11:38:14;;;;;;;7.75;5.47;;;;;;;-0.44;37.92;95641.13;4967024;28;20050;-74
2022/03/19 11:40:54;;;;;;;12.07;5.55;;;;;;;-0.03;36.92;95655.81;4960881;28;20402;-72
2022/03/19 11:43:26;;;;;;;11.80;6.53;;;;;;;-0.46;37.42;95647.53;4965763;28;20093;-71